sensor_id;sensor_type;location;lat;lon;timestamp;temperature;humidity
17815;DHT22;9031;50.974;11.330;2022-08-19T00:00:34;20.80;99.90
17815;DHT22;9031;50.974;11.330;2022-08-19T00:02:59;20.80;99.90
17815;DHT22;9031;50.974;11.330;2022-08-19T00:05:25;20.80;99.90
17815;DHT22;9031;50.974;11.330;2022-08-19T00:07:50;20.70;99.90
17815;DHT22;9031;50.974;11.330;2022-08-19T00:10:17;20.70;99.90
17815;DHT22;9031;50.974;11.330;2022-08-19T00:12:43;20.70;99.90
17815;DHT22;9031;50.974;11.330;2022-08-19T00:15:13;20.60;99.90
17815;DHT22;9031;50.974;11.330;2022-08-19T00:17:40;20.40;99.90
17815;DHT22;9031;50.974;11.330;2022-08-19T00:20:07;20.40;99.90
17815;DHT22;9031;50.974;11.330;2022-08-19T00:22:32;20.40;99.90
17815;DHT22;9031;50.974;11.330;2022-08-19T00:24:58;20.40;99.90
17815;DHT22;9031;50.974;11.330;2022-08-19T00:27:24;20.40;99.90
17815;DHT22;9031;50.974;11.330;2022-08-19T00:29:50;20.50;99.90
17815;DHT22;9031;50.974;11.330;2022-08-19T00:32:16;20.50;99.90
17815;DHT22;9031;50.974;11.330;2022-08-19T00:34:41;20.50;99.90
17815;DHT22;9031;50.974;11.330;2022-08-19T00:37:07;20.40;99.90
17815;DHT22;9031;50.974;11.330;2022-08-19T00:39:32;20.40;99.90
17815;DHT22;9031;50.974;11.330;2022-08-19T00:41:58;20.40;99.90
17815;DHT22;9031;50.974;11.330;2022-08-19T00:44:27;20.30;99.90
17815;DHT22;9031;50.974;11.330;2022-08-19T00:46:55;20.30;99.90
17815;DHT22;9031;50.974;11.330;2022-08-19T00:49:52;20.30;99.90
17815;DHT22;9031;50.974;11.330;2022-08-19T00:52:25;20.30;99.90
17815;DHT22;9031;50.974;11.330;2022-08-19T00:54:54;20.30;99.90
17815;DHT22;9031;50.974;11.330;2022-08-19T00:57:26;20.20;99.90
17815;DHT22;9031;50.974;11.330;2022-08-19T00:59:54;20.10;99.90
17815;DHT22;9031;50.974;11.330;2022-08-19T01:02:20;20.00;99.90
17815;DHT22;9031;50.974;11.330;2022-08-19T01:04:46;19.90;99.90
17815;DHT22;9031;50.974;11.330;2022-08-19T01:07:12;19.90;99.90
17815;DHT22;9031;50.974;11.330;2022-08-19T01:09:38;19.90;99.90
17815;DHT22;9031;50.974;11.330;2022-08-19T01:12:03;19.90;99.90
17815;DHT22;9031;50.974;11.330;2022-08-19T01:14:29;20.00;99.90
17815;DHT22;9031;50.974;11.330;2022-08-19T01:16:56;20.10;99.90
17815;DHT22;9031;50.974;11.330;2022-08-19T01:19:29;20.10;99.90
17815;DHT22;9031;50.974;11.330;2022-08-19T01:22:02;20.00;99.90
17815;DHT22;9031;50.974;11.330;2022-08-19T01:24:28;20.00;99.90
17815;DHT22;9031;50.974;11.330;2022-08-19T01:26:56;19.80;99.90
17815;DHT22;9031;50.974;11.330;2022-08-19T01:29:22;19.70;99.90
17815;DHT22;9031;50.974;11.330;2022-08-19T01:31:47;19.80;99.90
17815;DHT22;9031;50.974;11.330;2022-08-19T01:34:18;19.90;99.90
17815;DHT22;9031;50.974;11.330;2022-08-19T01:36:46;20.00;99.90
17815;DHT22;9031;50.974;11.330;2022-08-19T01:39:21;19.90;99.90
17815;DHT22;9031;50.974;11.330;2022-08-19T01:41:48;19.70;99.90
17815;DHT22;9031;50.974;11.330;2022-08-19T01:44:14;19.70;99.90
17815;DHT22;9031;50.974;11.330;2022-08-19T01:46:40;19.80;99.90
17815;DHT22;9031;50.974;11.330;2022-08-19T01:49:06;19.80;99.90
17815;DHT22;9031;50.974;11.330;2022-08-19T01:51:33;19.80;99.90
17815;DHT22;9031;50.974;11.330;2022-08-19T01:53:59;19.80;99.90
17815;DHT22;9031;50.974;11.330;2022-08-19T01:56:25;19.80;99.90
17815;DHT22;9031;50.974;11.330;2022-08-19T01:59:00;19.70;99.90
17815;DHT22;9031;50.974;11.330;2022-08-19T02:01:27;19.70;99.90
17815;DHT22;9031;50.974;11.330;2022-08-19T02:03:52;19.80;99.90
17815;DHT22;9031;50.974;11.330;2022-08-19T02:06:19;19.80;99.90
17815;DHT22;9031;50.974;11.330;2022-08-19T02:08:45;19.80;99.90
17815;DHT22;9031;50.974;11.330;2022-08-19T02:11:19;19.80;99.90
17815;DHT22;9031;50.974;11.330;2022-08-19T02:13:46;19.80;99.90
17815;DHT22;9031;50.974;11.330;2022-08-19T02:16:11;19.80;99.90
17815;DHT22;9031;50.974;11.330;2022-08-19T02:18:37;19.80;99.90
17815;DHT22;9031;50.974;11.330;2022-08-19T02:21:03;19.90;99.90
17815;DHT22;9031;50.974;11.330;2022-08-19T02:23:28;19.90;99.90
17815;DHT22;9031;50.974;11.330;2022-08-19T02:25:54;19.90;99.90
17815;DHT22;9031;50.974;11.330;2022-08-19T02:28:19;19.90;99.90
17815;DHT22;9031;50.974;11.330;2022-08-19T02:30:47;19.80;99.90
17815;DHT22;9031;50.974;11.330;2022-08-19T02:33:12;19.80;99.90
17815;DHT22;9031;50.974;11.330;2022-08-19T02:35:42;19.90;99.90
17815;DHT22;9031;50.974;11.330;2022-08-19T02:38:08;20.00;99.90
17815;DHT22;9031;50.974;11.330;2022-08-19T02:41:04;19.90;99.90
17815;DHT22;9031;50.974;11.330;2022-08-19T02:43:31;19.90;99.90
17815;DHT22;9031;50.974;11.330;2022-08-19T02:45:57;19.90;99.90
17815;DHT22;9031;50.974;11.330;2022-08-19T02:48:24;20.00;99.90
17815;DHT22;9031;50.974;11.330;2022-08-19T02:50:51;20.00;99.90
17815;DHT22;9031;50.974;11.330;2022-08-19T02:53:21;19.90;99.90
17815;DHT22;9031;50.974;11.330;2022-08-19T02:55:48;19.90;99.90
17815;DHT22;9031;50.974;11.330;2022-08-19T02:58:15;19.90;99.90
17815;DHT22;9031;50.974;11.330;2022-08-19T03:00:45;20.00;99.90
17815;DHT22;9031;50.974;11.330;2022-08-19T03:03:12;19.90;99.90
17815;DHT22;9031;50.974;11.330;2022-08-19T03:05:38;20.00;99.90
17815;DHT22;9031;50.974;11.330;2022-08-19T03:08:04;20.10;99.90
17815;DHT22;9031;50.974;11.330;2022-08-19T03:10:31;20.10;99.90
17815;DHT22;9031;50.974;11.330;2022-08-19T03:12:56;20.00;99.90
17815;DHT22;9031;50.974;11.330;2022-08-19T03:15:22;19.90;99.90
17815;DHT22;9031;50.974;11.330;2022-08-19T03:17:47;20.00;99.90
17815;DHT22;9031;50.974;11.330;2022-08-19T03:20:13;19.90;99.90
17815;DHT22;9031;50.974;11.330;2022-08-19T03:22:38;19.90;99.90
17815;DHT22;9031;50.974;11.330;2022-08-19T03:25:04;19.90;99.90
17815;DHT22;9031;50.974;11.330;2022-08-19T03:27:30;20.00;99.90
17815;DHT22;9031;50.974;11.330;2022-08-19T03:29:55;20.10;99.90
17815;DHT22;9031;50.974;11.330;2022-08-19T03:32:21;20.10;99.90
17815;DHT22;9031;50.974;11.330;2022-08-19T03:34:47;20.10;99.90
17815;DHT22;9031;50.974;11.330;2022-08-19T03:37:13;20.30;99.90
17815;DHT22;9031;50.974;11.330;2022-08-19T03:39:39;20.20;99.90
17815;DHT22;9031;50.974;11.330;2022-08-19T03:42:05;20.10;99.90
17815;DHT22;9031;50.974;11.330;2022-08-19T03:44:31;20.10;99.90
17815;DHT22;9031;50.974;11.330;2022-08-19T03:46:58;20.00;99.90
17815;DHT22;9031;50.974;11.330;2022-08-19T03:49:26;20.10;99.90
17815;DHT22;9031;50.974;11.330;2022-08-19T03:51:53;20.10;99.90
17815;DHT22;9031;50.974;11.330;2022-08-19T03:54:21;20.10;99.90
17815;DHT22;9031;50.974;11.330;2022-08-19T03:56:52;20.10;99.90
17815;DHT22;9031;50.974;11.330;2022-08-19T03:59:39;20.10;99.90
17815;DHT22;9031;50.974;11.330;2022-08-19T04:02:11;20.10;99.90
17815;DHT22;9031;50.974;11.330;2022-08-19T04:04:39;20.20;99.90
17815;DHT22;9031;50.974;11.330;2022-08-19T04:07:05;20.20;99.90
17815;DHT22;9031;50.974;11.330;2022-08-19T04:09:31;20.20;99.90
17815;DHT22;9031;50.974;11.330;2022-08-19T04:11:57;20.20;99.90
17815;DHT22;9031;50.974;11.330;2022-08-19T04:14:25;20.20;99.90
17815;DHT22;9031;50.974;11.330;2022-08-19T04:16:52;20.20;99.90
17815;DHT22;9031;50.974;11.330;2022-08-19T04:19:18;20.20;99.90
17815;DHT22;9031;50.974;11.330;2022-08-19T04:21:46;20.20;99.90
17815;DHT22;9031;50.974;11.330;2022-08-19T04:24:12;20.30;99.90
17815;DHT22;9031;50.974;11.330;2022-08-19T04:26:38;20.30;99.90
17815;DHT22;9031;50.974;11.330;2022-08-19T04:29:08;20.30;99.90
17815;DHT22;9031;50.974;11.330;2022-08-19T04:31:34;20.30;99.90
17815;DHT22;9031;50.974;11.330;2022-08-19T04:34:03;20.30;99.90
17815;DHT22;9031;50.974;11.330;2022-08-19T04:36:31;20.30;99.90
17815;DHT22;9031;50.974;11.330;2022-08-19T04:38:59;20.40;99.90
17815;DHT22;9031;50.974;11.330;2022-08-19T04:41:26;20.30;99.90
17815;DHT22;9031;50.974;11.330;2022-08-19T04:44:11;20.30;99.90
17815;DHT22;9031;50.974;11.330;2022-08-19T04:46:37;20.30;99.90
17815;DHT22;9031;50.974;11.330;2022-08-19T04:49:04;20.30;99.90
17815;DHT22;9031;50.974;11.330;2022-08-19T04:51:31;20.30;99.90
17815;DHT22;9031;50.974;11.330;2022-08-19T04:53:58;20.30;99.90
17815;DHT22;9031;50.974;11.330;2022-08-19T04:56:25;20.20;99.90
17815;DHT22;9031;50.974;11.330;2022-08-19T04:58:52;20.20;99.90
17815;DHT22;9031;50.974;11.330;2022-08-19T05:01:20;20.10;99.90
17815;DHT22;9031;50.974;11.330;2022-08-19T05:03:46;20.10;99.90
17815;DHT22;9031;50.974;11.330;2022-08-19T05:06:14;20.00;99.90
17815;DHT22;9031;50.974;11.330;2022-08-19T05:08:42;20.00;99.90
17815;DHT22;9031;50.974;11.330;2022-08-19T05:14:07;19.90;99.90
17815;DHT22;9031;50.974;11.330;2022-08-19T05:16:33;19.90;99.90
17815;DHT22;9031;50.974;11.330;2022-08-19T05:18:58;19.90;99.90
17815;DHT22;9031;50.974;11.330;2022-08-19T05:21:43;19.90;99.90
17815;DHT22;9031;50.974;11.330;2022-08-19T05:24:27;19.90;99.90
17815;DHT22;9031;50.974;11.330;2022-08-19T05:26:54;19.90;99.90
17815;DHT22;9031;50.974;11.330;2022-08-19T05:29:23;20.00;99.90
17815;DHT22;9031;50.974;11.330;2022-08-19T05:31:50;20.00;99.90
17815;DHT22;9031;50.974;11.330;2022-08-19T05:34:17;20.00;99.90
17815;DHT22;9031;50.974;11.330;2022-08-19T05:36:44;20.00;99.90
17815;DHT22;9031;50.974;11.330;2022-08-19T05:39:14;20.00;99.90
17815;DHT22;9031;50.974;11.330;2022-08-19T05:41:46;20.00;99.90
17815;DHT22;9031;50.974;11.330;2022-08-19T05:44:13;19.90;99.90
17815;DHT22;9031;50.974;11.330;2022-08-19T05:46:39;20.00;99.90
17815;DHT22;9031;50.974;11.330;2022-08-19T05:49:06;20.00;99.90
17815;DHT22;9031;50.974;11.330;2022-08-19T05:51:32;20.00;99.90
17815;DHT22;9031;50.974;11.330;2022-08-19T05:53:59;20.10;99.90
17815;DHT22;9031;50.974;11.330;2022-08-19T05:56:25;20.00;99.90
17815;DHT22;9031;50.974;11.330;2022-08-19T05:58:51;20.10;99.90
17815;DHT22;9031;50.974;11.330;2022-08-19T06:01:18;20.10;99.90
17815;DHT22;9031;50.974;11.330;2022-08-19T06:03:45;20.10;99.90
17815;DHT22;9031;50.974;11.330;2022-08-19T06:06:11;20.10;99.90
17815;DHT22;9031;50.974;11.330;2022-08-19T06:08:39;20.10;99.90
17815;DHT22;9031;50.974;11.330;2022-08-19T06:13:43;20.20;99.90
17815;DHT22;9031;50.974;11.330;2022-08-19T06:16:08;20.20;99.90
17815;DHT22;9031;50.974;11.330;2022-08-19T06:18:34;20.30;99.90
17815;DHT22;9031;50.974;11.330;2022-08-19T06:20:59;20.30;99.90
17815;DHT22;9031;50.974;11.330;2022-08-19T06:23:28;20.20;99.90
17815;DHT22;9031;50.974;11.330;2022-08-19T06:25:54;20.30;99.90
17815;DHT22;9031;50.974;11.330;2022-08-19T06:28:20;20.30;99.90
17815;DHT22;9031;50.974;11.330;2022-08-19T06:30:46;20.30;99.90
17815;DHT22;9031;50.974;11.330;2022-08-19T06:33:11;20.30;99.90
17815;DHT22;9031;50.974;11.330;2022-08-19T06:35:41;20.40;99.90
17815;DHT22;9031;50.974;11.330;2022-08-19T06:38:06;20.40;99.90
17815;DHT22;9031;50.974;11.330;2022-08-19T06:40:32;20.50;99.90
17815;DHT22;9031;50.974;11.330;2022-08-19T06:42:57;20.40;99.90
17815;DHT22;9031;50.974;11.330;2022-08-19T06:45:24;20.30;99.90
17815;DHT22;9031;50.974;11.330;2022-08-19T06:47:52;20.30;99.90
17815;DHT22;9031;50.974;11.330;2022-08-19T06:50:23;20.30;99.90
17815;DHT22;9031;50.974;11.330;2022-08-19T06:52:49;20.40;99.90
17815;DHT22;9031;50.974;11.330;2022-08-19T06:55:15;20.30;99.90
17815;DHT22;9031;50.974;11.330;2022-08-19T06:57:41;20.30;99.90
17815;DHT22;9031;50.974;11.330;2022-08-19T07:00:08;20.40;99.90
17815;DHT22;9031;50.974;11.330;2022-08-19T07:02:36;20.40;99.90
17815;DHT22;9031;50.974;11.330;2022-08-19T07:05:02;20.40;99.90
17815;DHT22;9031;50.974;11.330;2022-08-19T07:07:28;20.40;99.90
17815;DHT22;9031;50.974;11.330;2022-08-19T07:09:54;20.50;99.90
17815;DHT22;9031;50.974;11.330;2022-08-19T07:12:19;20.40;99.90
17815;DHT22;9031;50.974;11.330;2022-08-19T07:14:45;20.50;99.90
17815;DHT22;9031;50.974;11.330;2022-08-19T07:17:11;20.50;99.90
17815;DHT22;9031;50.974;11.330;2022-08-19T07:19:39;20.40;99.90
17815;DHT22;9031;50.974;11.330;2022-08-19T07:22:06;20.30;99.90
17815;DHT22;9031;50.974;11.330;2022-08-19T07:24:32;20.40;99.90
17815;DHT22;9031;50.974;11.330;2022-08-19T07:27:00;20.30;99.90
17815;DHT22;9031;50.974;11.330;2022-08-19T07:29:32;20.20;99.90
17815;DHT22;9031;50.974;11.330;2022-08-19T07:31:59;20.30;99.90
17815;DHT22;9031;50.974;11.330;2022-08-19T07:34:26;20.40;99.90
17815;DHT22;9031;50.974;11.330;2022-08-19T07:36:52;20.50;99.90
17815;DHT22;9031;50.974;11.330;2022-08-19T07:39:22;20.50;99.90
17815;DHT22;9031;50.974;11.330;2022-08-19T07:41:48;20.60;99.90
17815;DHT22;9031;50.974;11.330;2022-08-19T07:44:14;20.60;99.90
17815;DHT22;9031;50.974;11.330;2022-08-19T07:46:44;20.70;99.90
17815;DHT22;9031;50.974;11.330;2022-08-19T07:49:11;20.70;99.90
17815;DHT22;9031;50.974;11.330;2022-08-19T07:51:43;20.80;99.90
17815;DHT22;9031;50.974;11.330;2022-08-19T07:54:08;20.80;99.90
17815;DHT22;9031;50.974;11.330;2022-08-19T07:56:34;20.80;99.90
17815;DHT22;9031;50.974;11.330;2022-08-19T07:58:59;20.70;99.90
17815;DHT22;9031;50.974;11.330;2022-08-19T08:01:27;20.70;99.90
17815;DHT22;9031;50.974;11.330;2022-08-19T08:03:54;20.70;99.90
17815;DHT22;9031;50.974;11.330;2022-08-19T08:06:38;20.60;99.90
17815;DHT22;9031;50.974;11.330;2022-08-19T08:09:29;20.60;99.90
17815;DHT22;9031;50.974;11.330;2022-08-19T08:12:00;20.50;99.90
17815;DHT22;9031;50.974;11.330;2022-08-19T08:14:32;20.60;99.90
17815;DHT22;9031;50.974;11.330;2022-08-19T08:16:59;20.40;99.90
17815;DHT22;9031;50.974;11.330;2022-08-19T08:19:26;20.40;99.90
17815;DHT22;9031;50.974;11.330;2022-08-19T08:21:57;20.50;99.90
17815;DHT22;9031;50.974;11.330;2022-08-19T08:24:24;20.40;99.90
17815;DHT22;9031;50.974;11.330;2022-08-19T08:26:50;20.50;99.90
17815;DHT22;9031;50.974;11.330;2022-08-19T08:29:16;20.50;99.90
17815;DHT22;9031;50.974;11.330;2022-08-19T08:31:43;20.50;99.90
17815;DHT22;9031;50.974;11.330;2022-08-19T08:34:12;20.50;99.90
17815;DHT22;9031;50.974;11.330;2022-08-19T08:36:41;20.60;99.90
17815;DHT22;9031;50.974;11.330;2022-08-19T08:39:17;20.60;99.90
17815;DHT22;9031;50.974;11.330;2022-08-19T08:41:51;20.70;99.90
17815;DHT22;9031;50.974;11.330;2022-08-19T08:44:38;20.70;99.90
17815;DHT22;9031;50.974;11.330;2022-08-19T08:47:11;20.80;99.90
17815;DHT22;9031;50.974;11.330;2022-08-19T08:49:51;20.90;99.90
17815;DHT22;9031;50.974;11.330;2022-08-19T08:52:21;20.90;99.90
17815;DHT22;9031;50.974;11.330;2022-08-19T08:54:51;20.90;99.90
17815;DHT22;9031;50.974;11.330;2022-08-19T08:57:32;20.90;99.90
17815;DHT22;9031;50.974;11.330;2022-08-19T09:00:02;21.00;99.90
17815;DHT22;9031;50.974;11.330;2022-08-19T09:02:30;21.00;99.90
17815;DHT22;9031;50.974;11.330;2022-08-19T09:04:55;21.00;99.90
17815;DHT22;9031;50.974;11.330;2022-08-19T09:07:54;21.00;99.90
17815;DHT22;9031;50.974;11.330;2022-08-19T09:10:32;21.00;99.90
17815;DHT22;9031;50.974;11.330;2022-08-19T09:15:56;21.30;99.90
17815;DHT22;9031;50.974;11.330;2022-08-19T09:18:23;21.70;99.90
17815;DHT22;9031;50.974;11.330;2022-08-19T09:20:49;22.00;99.90
17815;DHT22;9031;50.974;11.330;2022-08-19T09:23:15;22.20;99.90
17815;DHT22;9031;50.974;11.330;2022-08-19T09:25:41;22.00;99.90
17815;DHT22;9031;50.974;11.330;2022-08-19T09:28:07;21.70;99.90
17815;DHT22;9031;50.974;11.330;2022-08-19T09:30:38;21.40;99.90
17815;DHT22;9031;50.974;11.330;2022-08-19T09:33:05;21.20;99.90
17815;DHT22;9031;50.974;11.330;2022-08-19T09:35:31;21.20;99.90
17815;DHT22;9031;50.974;11.330;2022-08-19T09:37:58;21.10;99.90
17815;DHT22;9031;50.974;11.330;2022-08-19T09:40:25;21.10;99.90
17815;DHT22;9031;50.974;11.330;2022-08-19T09:42:50;21.00;99.90
17815;DHT22;9031;50.974;11.330;2022-08-19T09:45:19;20.90;99.90
17815;DHT22;9031;50.974;11.330;2022-08-19T09:47:47;20.80;99.90
17815;DHT22;9031;50.974;11.330;2022-08-19T09:50:13;20.90;99.90
17815;DHT22;9031;50.974;11.330;2022-08-19T09:52:39;20.80;99.90
17815;DHT22;9031;50.974;11.330;2022-08-19T09:55:06;20.80;99.90
17815;DHT22;9031;50.974;11.330;2022-08-19T09:57:32;20.90;99.90
17815;DHT22;9031;50.974;11.330;2022-08-19T09:59:58;21.00;99.90
17815;DHT22;9031;50.974;11.330;2022-08-19T10:02:24;21.10;99.90
17815;DHT22;9031;50.974;11.330;2022-08-19T10:04:50;21.10;99.90
17815;DHT22;9031;50.974;11.330;2022-08-19T10:07:34;21.10;99.90
17815;DHT22;9031;50.974;11.330;2022-08-19T10:10:00;21.00;99.90
17815;DHT22;9031;50.974;11.330;2022-08-19T10:12:26;21.00;99.90
17815;DHT22;9031;50.974;11.330;2022-08-19T10:14:52;21.00;99.90
17815;DHT22;9031;50.974;11.330;2022-08-19T10:17:19;21.00;99.90
17815;DHT22;9031;50.974;11.330;2022-08-19T10:19:45;21.00;99.90
17815;DHT22;9031;50.974;11.330;2022-08-19T10:22:10;21.20;99.90
17815;DHT22;9031;50.974;11.330;2022-08-19T10:24:38;21.20;99.90
17815;DHT22;9031;50.974;11.330;2022-08-19T10:27:04;21.30;99.90
17815;DHT22;9031;50.974;11.330;2022-08-19T10:29:31;21.30;99.90
17815;DHT22;9031;50.974;11.330;2022-08-19T10:31:58;21.40;99.90
17815;DHT22;9031;50.974;11.330;2022-08-19T10:34:26;21.40;99.90
17815;DHT22;9031;50.974;11.330;2022-08-19T10:36:52;21.50;99.90
17815;DHT22;9031;50.974;11.330;2022-08-19T10:39:17;21.50;99.90
17815;DHT22;9031;50.974;11.330;2022-08-19T10:41:43;21.50;99.90
17815;DHT22;9031;50.974;11.330;2022-08-19T10:44:10;21.60;99.90
17815;DHT22;9031;50.974;11.330;2022-08-19T10:46:39;21.50;99.90
17815;DHT22;9031;50.974;11.330;2022-08-19T10:49:07;21.60;99.90
17815;DHT22;9031;50.974;11.330;2022-08-19T10:51:33;21.70;99.90
17815;DHT22;9031;50.974;11.330;2022-08-19T10:54:17;22.00;99.90
17815;DHT22;9031;50.974;11.330;2022-08-19T10:56:44;22.60;99.90
17815;DHT22;9031;50.974;11.330;2022-08-19T10:59:23;23.10;99.90
17815;DHT22;9031;50.974;11.330;2022-08-19T11:01:50;23.50;99.90
17815;DHT22;9031;50.974;11.330;2022-08-19T11:04:17;23.80;99.90
17815;DHT22;9031;50.974;11.330;2022-08-19T11:06:47;24.00;99.90
17815;DHT22;9031;50.974;11.330;2022-08-19T11:09:18;24.50;99.90
17815;DHT22;9031;50.974;11.330;2022-08-19T11:11:44;24.80;99.90
17815;DHT22;9031;50.974;11.330;2022-08-19T11:14:12;24.90;99.90
17815;DHT22;9031;50.974;11.330;2022-08-19T11:16:40;24.80;99.90
17815;DHT22;9031;50.974;11.330;2022-08-19T11:19:07;25.30;99.90
17815;DHT22;9031;50.974;11.330;2022-08-19T11:21:36;25.70;99.90
17815;DHT22;9031;50.974;11.330;2022-08-19T11:24:08;26.00;99.90
17815;DHT22;9031;50.974;11.330;2022-08-19T11:26:35;25.50;99.90
17815;DHT22;9031;50.974;11.330;2022-08-19T11:29:01;25.30;99.90
17815;DHT22;9031;50.974;11.330;2022-08-19T11:31:30;25.10;99.90
17815;DHT22;9031;50.974;11.330;2022-08-19T11:34:01;24.70;99.90
17815;DHT22;9031;50.974;11.330;2022-08-19T11:36:28;24.70;99.90
17815;DHT22;9031;50.974;11.330;2022-08-19T11:38:54;24.50;99.90
17815;DHT22;9031;50.974;11.330;2022-08-19T11:41:22;24.60;99.90
17815;DHT22;9031;50.974;11.330;2022-08-19T11:43:52;24.70;99.90
17815;DHT22;9031;50.974;11.330;2022-08-19T11:46:19;24.70;99.90
17815;DHT22;9031;50.974;11.330;2022-08-19T11:48:45;24.90;99.90
17815;DHT22;9031;50.974;11.330;2022-08-19T11:51:13;25.30;99.90
17815;DHT22;9031;50.974;11.330;2022-08-19T11:53:40;25.90;99.90
17815;DHT22;9031;50.974;11.330;2022-08-19T11:56:07;26.40;99.90
17815;DHT22;9031;50.974;11.330;2022-08-19T11:58:33;27.30;99.90
17815;DHT22;9031;50.974;11.330;2022-08-19T12:00:59;28.10;99.90
17815;DHT22;9031;50.974;11.330;2022-08-19T12:03:25;28.00;99.90
17815;DHT22;9031;50.974;11.330;2022-08-19T12:05:51;27.30;99.90
17815;DHT22;9031;50.974;11.330;2022-08-19T12:08:17;27.50;99.90
17815;DHT22;9031;50.974;11.330;2022-08-19T12:10:44;27.60;99.90
17815;DHT22;9031;50.974;11.330;2022-08-19T12:13:11;27.20;99.90
17815;DHT22;9031;50.974;11.330;2022-08-19T12:15:40;27.00;99.90
17815;DHT22;9031;50.974;11.330;2022-08-19T12:18:07;27.40;99.90
17815;DHT22;9031;50.974;11.330;2022-08-19T12:20:38;27.70;99.90
17815;DHT22;9031;50.974;11.330;2022-08-19T12:23:05;27.70;99.90
17815;DHT22;9031;50.974;11.330;2022-08-19T12:25:32;27.30;99.90
17815;DHT22;9031;50.974;11.330;2022-08-19T12:27:58;26.40;99.90
17815;DHT22;9031;50.974;11.330;2022-08-19T12:30:24;26.70;99.90
17815;DHT22;9031;50.974;11.330;2022-08-19T12:32:50;26.80;99.90
17815;DHT22;9031;50.974;11.330;2022-08-19T12:35:16;27.50;99.90
17815;DHT22;9031;50.974;11.330;2022-08-19T12:37:42;27.10;99.90
17815;DHT22;9031;50.974;11.330;2022-08-19T12:40:10;26.90;99.90
17815;DHT22;9031;50.974;11.330;2022-08-19T12:42:38;26.60;99.90
17815;DHT22;9031;50.974;11.330;2022-08-19T12:45:07;26.00;99.90
17815;DHT22;9031;50.974;11.330;2022-08-19T12:47:32;25.70;99.90
17815;DHT22;9031;50.974;11.330;2022-08-19T12:49:58;25.30;99.90
17815;DHT22;9031;50.974;11.330;2022-08-19T12:52:25;25.50;99.90
17815;DHT22;9031;50.974;11.330;2022-08-19T12:54:53;25.40;99.90
17815;DHT22;9031;50.974;11.330;2022-08-19T12:57:19;25.20;99.90
17815;DHT22;9031;50.974;11.330;2022-08-19T12:59:45;25.30;99.90
17815;DHT22;9031;50.974;11.330;2022-08-19T13:02:10;25.90;99.90
17815;DHT22;9031;50.974;11.330;2022-08-19T13:04:36;26.20;99.90
17815;DHT22;9031;50.974;11.330;2022-08-19T13:07:06;27.20;99.90
17815;DHT22;9031;50.974;11.330;2022-08-19T13:09:31;28.00;99.90
17815;DHT22;9031;50.974;11.330;2022-08-19T13:11:57;28.20;99.90
17815;DHT22;9031;50.974;11.330;2022-08-19T13:14:22;29.10;99.90
17815;DHT22;9031;50.974;11.330;2022-08-19T13:16:48;29.70;99.90
17815;DHT22;9031;50.974;11.330;2022-08-19T13:19:13;29.30;99.90
17815;DHT22;9031;50.974;11.330;2022-08-19T13:21:39;28.20;99.90
17815;DHT22;9031;50.974;11.330;2022-08-19T13:24:05;27.90;99.90
17815;DHT22;9031;50.974;11.330;2022-08-19T13:26:31;27.80;99.90
17815;DHT22;9031;50.974;11.330;2022-08-19T13:28:57;27.20;99.90
17815;DHT22;9031;50.974;11.330;2022-08-19T13:31:42;26.70;99.90
17815;DHT22;9031;50.974;11.330;2022-08-19T13:34:35;26.50;99.90
17815;DHT22;9031;50.974;11.330;2022-08-19T13:37:03;26.20;99.90
17815;DHT22;9031;50.974;11.330;2022-08-19T13:39:33;26.10;99.90
17815;DHT22;9031;50.974;11.330;2022-08-19T13:41:59;25.90;99.90
17815;DHT22;9031;50.974;11.330;2022-08-19T13:44:26;26.10;99.90
17815;DHT22;9031;50.974;11.330;2022-08-19T13:47:00;26.00;99.90
17815;DHT22;9031;50.974;11.330;2022-08-19T13:49:30;25.90;99.90
17815;DHT22;9031;50.974;11.330;2022-08-19T13:51:56;25.80;99.90
17815;DHT22;9031;50.974;11.330;2022-08-19T13:54:22;25.80;99.90
17815;DHT22;9031;50.974;11.330;2022-08-19T13:56:48;25.80;99.90
17815;DHT22;9031;50.974;11.330;2022-08-19T13:59:14;25.70;99.90
17815;DHT22;9031;50.974;11.330;2022-08-19T14:01:39;25.80;99.90
17815;DHT22;9031;50.974;11.330;2022-08-19T14:04:06;25.90;99.90
17815;DHT22;9031;50.974;11.330;2022-08-19T14:06:32;25.90;99.90
17815;DHT22;9031;50.974;11.330;2022-08-19T14:08:58;25.90;99.90
17815;DHT22;9031;50.974;11.330;2022-08-19T14:11:23;26.20;99.90
17815;DHT22;9031;50.974;11.330;2022-08-19T14:13:50;26.30;99.90
17815;DHT22;9031;50.974;11.330;2022-08-19T14:16:16;26.20;99.90
17815;DHT22;9031;50.974;11.330;2022-08-19T14:18:43;26.30;99.90
17815;DHT22;9031;50.974;11.330;2022-08-19T14:21:15;26.30;99.90
17815;DHT22;9031;50.974;11.330;2022-08-19T14:23:41;26.20;99.90
17815;DHT22;9031;50.974;11.330;2022-08-19T14:26:12;26.30;99.90
17815;DHT22;9031;50.974;11.330;2022-08-19T14:28:39;26.30;99.90
17815;DHT22;9031;50.974;11.330;2022-08-19T14:31:07;26.10;99.90
17815;DHT22;9031;50.974;11.330;2022-08-19T14:33:33;25.80;99.90
17815;DHT22;9031;50.974;11.330;2022-08-19T14:35:59;25.80;99.90
17815;DHT22;9031;50.974;11.330;2022-08-19T14:38:25;25.60;99.90
17815;DHT22;9031;50.974;11.330;2022-08-19T14:40:51;25.70;99.90
17815;DHT22;9031;50.974;11.330;2022-08-19T14:43:17;25.60;99.90
17815;DHT22;9031;50.974;11.330;2022-08-19T14:45:43;25.50;99.90
17815;DHT22;9031;50.974;11.330;2022-08-19T14:48:09;25.40;99.90
17815;DHT22;9031;50.974;11.330;2022-08-19T14:50:35;25.40;99.90
17815;DHT22;9031;50.974;11.330;2022-08-19T14:53:04;25.40;99.90
17815;DHT22;9031;50.974;11.330;2022-08-19T14:55:31;25.30;99.90
17815;DHT22;9031;50.974;11.330;2022-08-19T14:57:57;25.10;99.90
17815;DHT22;9031;50.974;11.330;2022-08-19T15:00:23;25.10;99.90
17815;DHT22;9031;50.974;11.330;2022-08-19T15:02:50;25.00;99.90
17815;DHT22;9031;50.974;11.330;2022-08-19T15:05:16;25.00;99.90
17815;DHT22;9031;50.974;11.330;2022-08-19T15:07:42;24.90;99.90
17815;DHT22;9031;50.974;11.330;2022-08-19T15:10:09;24.80;99.90
17815;DHT22;9031;50.974;11.330;2022-08-19T15:12:36;24.80;99.90
17815;DHT22;9031;50.974;11.330;2022-08-19T15:15:07;24.80;99.90
17815;DHT22;9031;50.974;11.330;2022-08-19T15:17:33;24.90;99.90
17815;DHT22;9031;50.974;11.330;2022-08-19T15:19:58;24.90;99.90
17815;DHT22;9031;50.974;11.330;2022-08-19T15:22:24;24.90;99.90
17815;DHT22;9031;50.974;11.330;2022-08-19T15:24:49;24.80;99.90
17815;DHT22;9031;50.974;11.330;2022-08-19T15:27:15;24.80;99.90
17815;DHT22;9031;50.974;11.330;2022-08-19T15:29:40;24.70;99.90
17815;DHT22;9031;50.974;11.330;2022-08-19T15:32:07;24.50;99.90
17815;DHT22;9031;50.974;11.330;2022-08-19T15:34:33;24.70;99.90
17815;DHT22;9031;50.974;11.330;2022-08-19T15:37:00;24.80;99.90
17815;DHT22;9031;50.974;11.330;2022-08-19T15:39:26;24.90;99.90
17815;DHT22;9031;50.974;11.330;2022-08-19T15:41:52;24.90;99.90